Hampstead, New Hampshire
Current Conditions -  °F | °C
As of 8:54 PM on Wednesday 17 Dec 2014 (Local Time) from KLWM Reporting Station
Overcast Overcast  
Wind Chill: 38°   Ceiling: 3000
Heat Index: 44°   Visibility: 10mi
Dew Point: 37°   Wind: 13mph
Humidity: 76%   Direction: 280°W
Pressure: 29.73"   Gusts: NA
Location:  42.87°N, 71.18°W
Report Text: KLWM 180154Z 28011KT 10SM OVC030 07/03 A2973 RMK AO2 SLP067 T00670028
Loading
Personal Weather Stations






























Interactive Weather Map New forecast layout! Learn more

10-Day Weather Forecast

Advertisements
Track Severe Weather on mobile